sensor_id;sensor_type;location;lat;lon;timestamp;temperature;humidity
18712;DHT22;9485;49.386;8.674;2022-11-13T00:01:31;10.80;94.80
18712;DHT22;9485;49.386;8.674;2022-11-13T00:07:13;10.70;94.80
18712;DHT22;9485;49.386;8.674;2022-11-13T00:12:54;10.70;94.80
18712;DHT22;9485;49.386;8.674;2022-11-13T00:18:36;10.70;94.80
18712;DHT22;9485;49.386;8.674;2022-11-13T00:24:17;10.60;94.80
18712;DHT22;9485;49.386;8.674;2022-11-13T00:29:57;10.60;94.90
18712;DHT22;9485;49.386;8.674;2022-11-13T00:35:37;10.60;94.80
18712;DHT22;9485;49.386;8.674;2022-11-13T00:41:17;10.60;94.90
18712;DHT22;9485;49.386;8.674;2022-11-13T00:46:59;10.60;94.90
18712;DHT22;9485;49.386;8.674;2022-11-13T00:52:39;10.60;95.00
18712;DHT22;9485;49.386;8.674;2022-11-13T00:58:18;10.50;94.90
18712;DHT22;9485;49.386;8.674;2022-11-13T01:03:59;10.50;94.90
18712;DHT22;9485;49.386;8.674;2022-11-13T01:09:39;10.50;94.90
18712;DHT22;9485;49.386;8.674;2022-11-13T01:15:18;10.50;95.00
18712;DHT22;9485;49.386;8.674;2022-11-13T01:21:03;10.50;95.00
18712;DHT22;9485;49.386;8.674;2022-11-13T01:26:44;10.50;94.90
18712;DHT22;9485;49.386;8.674;2022-11-13T01:32:24;10.50;95.00
18712;DHT22;9485;49.386;8.674;2022-11-13T01:38:05;10.50;95.00
18712;DHT22;9485;49.386;8.674;2022-11-13T01:43:46;10.50;95.00
18712;DHT22;9485;49.386;8.674;2022-11-13T01:49:28;10.50;94.90
18712;DHT22;9485;49.386;8.674;2022-11-13T01:55:13;10.50;94.80
18712;DHT22;9485;49.386;8.674;2022-11-13T02:00:55;10.50;94.70
18712;DHT22;9485;49.386;8.674;2022-11-13T02:06:40;10.40;94.70
18712;DHT22;9485;49.386;8.674;2022-11-13T02:12:28;10.40;94.40
18712;DHT22;9485;49.386;8.674;2022-11-13T02:18:14;10.40;94.40
18712;DHT22;9485;49.386;8.674;2022-11-13T02:24:10;10.20;94.50
18712;DHT22;9485;49.386;8.674;2022-11-13T02:29:55;10.20;94.60
18712;DHT22;9485;49.386;8.674;2022-11-13T02:35:36;10.10;94.90
18712;DHT22;9485;49.386;8.674;2022-11-13T02:41:19;10.10;94.60
18712;DHT22;9485;49.386;8.674;2022-11-13T02:46:58;10.10;94.70
18712;DHT22;9485;49.386;8.674;2022-11-13T02:52:37;10.10;94.80
18712;DHT22;9485;49.386;8.674;2022-11-13T02:58:18;10.10;94.80
18712;DHT22;9485;49.386;8.674;2022-11-13T03:03:58;10.10;94.90
18712;DHT22;9485;49.386;8.674;2022-11-13T03:09:37;10.10;94.90
18712;DHT22;9485;49.386;8.674;2022-11-13T03:15:18;10.20;94.90
18712;DHT22;9485;49.386;8.674;2022-11-13T03:21:05;10.10;94.70
18712;DHT22;9485;49.386;8.674;2022-11-13T03:26:45;10.10;94.40
18712;DHT22;9485;49.386;8.674;2022-11-13T03:32:27;10.00;94.50
18712;DHT22;9485;49.386;8.674;2022-11-13T03:38:06;10.00;94.70
18712;DHT22;9485;49.386;8.674;2022-11-13T03:43:46;10.00;94.80
18712;DHT22;9485;49.386;8.674;2022-11-13T03:49:27;9.90;94.80
18712;DHT22;9485;49.386;8.674;2022-11-13T03:55:06;9.90;94.90
18712;DHT22;9485;49.386;8.674;2022-11-13T04:00:47;9.90;94.90
18712;DHT22;9485;49.386;8.674;2022-11-13T04:06:28;10.00;94.80
18712;DHT22;9485;49.386;8.674;2022-11-13T04:12:08;9.90;94.50
18712;DHT22;9485;49.386;8.674;2022-11-13T04:17:47;9.90;94.60
18712;DHT22;9485;49.386;8.674;2022-11-13T04:23:28;9.90;94.60
18712;DHT22;9485;49.386;8.674;2022-11-13T04:29:08;9.90;94.60
18712;DHT22;9485;49.386;8.674;2022-11-13T04:34:48;9.80;94.70
18712;DHT22;9485;49.386;8.674;2022-11-13T04:40:30;9.80;94.60
18712;DHT22;9485;49.386;8.674;2022-11-13T04:46:09;9.80;94.60
18712;DHT22;9485;49.386;8.674;2022-11-13T04:51:49;9.70;94.50
18712;DHT22;9485;49.386;8.674;2022-11-13T04:57:30;9.70;94.60
18712;DHT22;9485;49.386;8.674;2022-11-13T05:03:10;9.70;94.30
18712;DHT22;9485;49.386;8.674;2022-11-13T05:08:50;9.60;94.30
18712;DHT22;9485;49.386;8.674;2022-11-13T05:14:31;9.60;94.40
18712;DHT22;9485;49.386;8.674;2022-11-13T05:20:11;9.50;94.50
18712;DHT22;9485;49.386;8.674;2022-11-13T05:25:51;9.50;94.60
18712;DHT22;9485;49.386;8.674;2022-11-13T05:31:33;9.40;94.40
18712;DHT22;9485;49.386;8.674;2022-11-13T05:37:14;9.50;94.60
18712;DHT22;9485;49.386;8.674;2022-11-13T05:42:55;9.40;94.70
18712;DHT22;9485;49.386;8.674;2022-11-13T05:48:35;9.40;94.60
18712;DHT22;9485;49.386;8.674;2022-11-13T05:54:15;9.40;94.50
18712;DHT22;9485;49.386;8.674;2022-11-13T05:59:54;9.30;94.50
18712;DHT22;9485;49.386;8.674;2022-11-13T06:05:35;9.30;94.60
18712;DHT22;9485;49.386;8.674;2022-11-13T06:11:17;9.30;94.60
18712;DHT22;9485;49.386;8.674;2022-11-13T06:16:58;9.30;94.70
18712;DHT22;9485;49.386;8.674;2022-11-13T06:22:39;9.30;94.80
18712;DHT22;9485;49.386;8.674;2022-11-13T06:28:18;9.30;94.80
18712;DHT22;9485;49.386;8.674;2022-11-13T06:33:59;9.30;94.80
18712;DHT22;9485;49.386;8.674;2022-11-13T06:39:40;9.30;94.80
18712;DHT22;9485;49.386;8.674;2022-11-13T06:45:20;9.30;94.80
18712;DHT22;9485;49.386;8.674;2022-11-13T06:51:01;9.30;94.80
18712;DHT22;9485;49.386;8.674;2022-11-13T06:56:44;9.30;94.70
18712;DHT22;9485;49.386;8.674;2022-11-13T07:02:23;9.30;94.70
18712;DHT22;9485;49.386;8.674;2022-11-13T07:08:08;9.30;94.70
18712;DHT22;9485;49.386;8.674;2022-11-13T07:13:49;9.30;94.70
18712;DHT22;9485;49.386;8.674;2022-11-13T07:19:29;9.30;94.70
18712;DHT22;9485;49.386;8.674;2022-11-13T07:25:09;9.30;94.70
18712;DHT22;9485;49.386;8.674;2022-11-13T07:30:50;9.20;94.70
18712;DHT22;9485;49.386;8.674;2022-11-13T07:36:29;9.30;94.70
18712;DHT22;9485;49.386;8.674;2022-11-13T07:42:09;9.20;94.70
18712;DHT22;9485;49.386;8.674;2022-11-13T07:47:51;9.20;94.70
18712;DHT22;9485;49.386;8.674;2022-11-13T07:53:31;9.20;94.60
18712;DHT22;9485;49.386;8.674;2022-11-13T07:59:14;9.20;94.60
18712;DHT22;9485;49.386;8.674;2022-11-13T08:04:55;9.20;94.40
18712;DHT22;9485;49.386;8.674;2022-11-13T08:10:35;9.10;94.20
18712;DHT22;9485;49.386;8.674;2022-11-13T08:16:15;9.10;94.10
18712;DHT22;9485;49.386;8.674;2022-11-13T08:21:57;9.10;94.30
18712;DHT22;9485;49.386;8.674;2022-11-13T08:27:37;9.10;94.40
18712;DHT22;9485;49.386;8.674;2022-11-13T08:33:16;9.10;94.50
18712;DHT22;9485;49.386;8.674;2022-11-13T08:38:57;9.20;94.70
18712;DHT22;9485;49.386;8.674;2022-11-13T08:44:37;9.20;94.70
18712;DHT22;9485;49.386;8.674;2022-11-13T08:50:17;9.30;94.70
18712;DHT22;9485;49.386;8.674;2022-11-13T08:56:00;9.30;94.80
18712;DHT22;9485;49.386;8.674;2022-11-13T09:01:41;9.40;94.80
18712;DHT22;9485;49.386;8.674;2022-11-13T09:07:20;9.50;94.80
18712;DHT22;9485;49.386;8.674;2022-11-13T09:13:04;9.60;94.90
18712;DHT22;9485;49.386;8.674;2022-11-13T09:18:48;9.60;94.90
18712;DHT22;9485;49.386;8.674;2022-11-13T09:24:27;9.70;94.90
18712;DHT22;9485;49.386;8.674;2022-11-13T09:30:11;9.80;94.50
18712;DHT22;9485;49.386;8.674;2022-11-13T09:35:51;9.80;94.50
18712;DHT22;9485;49.386;8.674;2022-11-13T09:41:36;9.80;94.40
18712;DHT22;9485;49.386;8.674;2022-11-13T09:47:23;9.80;94.50
18712;DHT22;9485;49.386;8.674;2022-11-13T09:53:09;9.90;94.60
18712;DHT22;9485;49.386;8.674;2022-11-13T09:59:01;10.00;94.70
18712;DHT22;9485;49.386;8.674;2022-11-13T10:04:58;10.00;94.40
18712;DHT22;9485;49.386;8.674;2022-11-13T10:10:47;10.00;94.20
18712;DHT22;9485;49.386;8.674;2022-11-13T10:16:31;10.00;94.40
18712;DHT22;9485;49.386;8.674;2022-11-13T10:22:20;10.00;94.50
18712;DHT22;9485;49.386;8.674;2022-11-13T10:28:11;10.10;94.50
18712;DHT22;9485;49.386;8.674;2022-11-13T10:33:56;10.20;94.70
18712;DHT22;9485;49.386;8.674;2022-11-13T10:39:43;10.20;94.70
18712;DHT22;9485;49.386;8.674;2022-11-13T10:45:23;10.30;94.50
18712;DHT22;9485;49.386;8.674;2022-11-13T10:51:05;10.30;94.60
18712;DHT22;9485;49.386;8.674;2022-11-13T10:57:00;10.40;94.60
18712;DHT22;9485;49.386;8.674;2022-11-13T11:02:47;10.40;94.60
18712;DHT22;9485;49.386;8.674;2022-11-13T11:08:30;10.50;94.50
18712;DHT22;9485;49.386;8.674;2022-11-13T11:14:18;10.70;94.80
18712;DHT22;9485;49.386;8.674;2022-11-13T11:20:06;10.80;94.60
18712;DHT22;9485;49.386;8.674;2022-11-13T11:25:58;11.00;94.70
18712;DHT22;9485;49.386;8.674;2022-11-13T11:31:46;11.20;94.90
18712;DHT22;9485;49.386;8.674;2022-11-13T11:37:34;11.40;95.00
18712;DHT22;9485;49.386;8.674;2022-11-13T11:43:20;11.60;94.80
18712;DHT22;9485;49.386;8.674;2022-11-13T11:49:09;11.70;94.30
18712;DHT22;9485;49.386;8.674;2022-11-13T11:54:55;11.80;93.90
18712;DHT22;9485;49.386;8.674;2022-11-13T12:00:48;11.80;93.80
18712;DHT22;9485;49.386;8.674;2022-11-13T12:06:40;11.80;93.80
18712;DHT22;9485;49.386;8.674;2022-11-13T12:12:39;11.80;93.70
18712;DHT22;9485;49.386;8.674;2022-11-13T12:21:53;11.80;92.70
18712;DHT22;9485;49.386;8.674;2022-11-13T12:27:45;11.80;93.80
18712;DHT22;9485;49.386;8.674;2022-11-13T12:33:37;11.90;94.10
18712;DHT22;9485;49.386;8.674;2022-11-13T12:39:38;12.00;94.50
18712;DHT22;9485;49.386;8.674;2022-11-13T12:45:25;12.20;94.20
18712;DHT22;9485;49.386;8.674;2022-11-13T12:51:22;12.40;94.80
18712;DHT22;9485;49.386;8.674;2022-11-13T12:57:18;12.70;94.60
18712;DHT22;9485;49.386;8.674;2022-11-13T13:03:14;12.90;94.00
18712;DHT22;9485;49.386;8.674;2022-11-13T13:09:10;13.00;93.90
18712;DHT22;9485;49.386;8.674;2022-11-13T13:21:12;13.20;93.80
18712;DHT22;9485;49.386;8.674;2022-11-13T13:26:56;13.30;93.50
18712;DHT22;9485;49.386;8.674;2022-11-13T13:32:44;13.30;93.20
18712;DHT22;9485;49.386;8.674;2022-11-13T13:38:33;13.30;93.00
18712;DHT22;9485;49.386;8.674;2022-11-13T13:44:32;13.20;92.90
18712;DHT22;9485;49.386;8.674;2022-11-13T13:50:23;13.10;92.60
18712;DHT22;9485;49.386;8.674;2022-11-13T13:56:09;12.90;92.80
18712;DHT22;9485;49.386;8.674;2022-11-13T14:01:54;12.90;92.60
18712;DHT22;9485;49.386;8.674;2022-11-13T14:07:44;12.70;92.50
18712;DHT22;9485;49.386;8.674;2022-11-13T14:13:26;12.70;92.70
18712;DHT22;9485;49.386;8.674;2022-11-13T14:19:09;12.60;93.00
18712;DHT22;9485;49.386;8.674;2022-11-13T14:24:53;12.50;93.20
18712;DHT22;9485;49.386;8.674;2022-11-13T14:30:35;12.50;93.20
18712;DHT22;9485;49.386;8.674;2022-11-13T14:36:15;12.40;93.30
18712;DHT22;9485;49.386;8.674;2022-11-13T14:42:05;12.40;93.20
18712;DHT22;9485;49.386;8.674;2022-11-13T14:47:55;12.40;93.00
18712;DHT22;9485;49.386;8.674;2022-11-13T14:53:38;12.30;93.30
18712;DHT22;9485;49.386;8.674;2022-11-13T14:59:26;12.30;93.40
18712;DHT22;9485;49.386;8.674;2022-11-13T15:05:07;12.20;93.30
18712;DHT22;9485;49.386;8.674;2022-11-13T15:10:47;12.20;93.50
18712;DHT22;9485;49.386;8.674;2022-11-13T15:16:28;12.20;93.60
18712;DHT22;9485;49.386;8.674;2022-11-13T15:22:09;12.10;93.50
18712;DHT22;9485;49.386;8.674;2022-11-13T15:27:50;12.10;93.50
18712;DHT22;9485;49.386;8.674;2022-11-13T15:33:34;12.00;93.40
18712;DHT22;9485;49.386;8.674;2022-11-13T15:39:15;11.90;93.30
18712;DHT22;9485;49.386;8.674;2022-11-13T15:44:55;11.80;93.30
18712;DHT22;9485;49.386;8.674;2022-11-13T15:50:38;11.70;93.30
18712;DHT22;9485;49.386;8.674;2022-11-13T15:56:17;11.60;93.20
18712;DHT22;9485;49.386;8.674;2022-11-13T16:01:58;11.40;93.20
18712;DHT22;9485;49.386;8.674;2022-11-13T16:07:39;11.30;93.10
18712;DHT22;9485;49.386;8.674;2022-11-13T16:13:19;11.20;93.20
18712;DHT22;9485;49.386;8.674;2022-11-13T16:18:58;11.10;93.30
18712;DHT22;9485;49.386;8.674;2022-11-13T16:24:42;11.00;93.40
18712;DHT22;9485;49.386;8.674;2022-11-13T16:30:23;10.90;93.20
18712;DHT22;9485;49.386;8.674;2022-11-13T16:36:08;10.80;93.30
18712;DHT22;9485;49.386;8.674;2022-11-13T16:41:53;10.60;93.10
18712;DHT22;9485;49.386;8.674;2022-11-13T16:47:19;12.30;93.40
18712;DHT22;9485;49.386;8.674;2022-11-13T16:53:01;10.40;93.30
18712;DHT22;9485;49.386;8.674;2022-11-13T16:58:40;10.30;93.40
18712;DHT22;9485;49.386;8.674;2022-11-13T17:04:21;10.20;93.40
18712;DHT22;9485;49.386;8.674;2022-11-13T17:10:01;10.20;93.60
18712;DHT22;9485;49.386;8.674;2022-11-13T17:15:42;10.10;93.70
18712;DHT22;9485;49.386;8.674;2022-11-13T17:21:25;10.10;93.80
18712;DHT22;9485;49.386;8.674;2022-11-13T17:27:06;10.00;93.70
18712;DHT22;9485;49.386;8.674;2022-11-13T17:32:45;10.00;93.80
18712;DHT22;9485;49.386;8.674;2022-11-13T17:38:26;9.90;93.80
18712;DHT22;9485;49.386;8.674;2022-11-13T17:44:06;9.90;93.70
18712;DHT22;9485;49.386;8.674;2022-11-13T17:49:46;9.80;93.70
18712;DHT22;9485;49.386;8.674;2022-11-13T17:55:27;9.70;93.80
18712;DHT22;9485;49.386;8.674;2022-11-13T18:01:09;9.70;93.80
18712;DHT22;9485;49.386;8.674;2022-11-13T18:06:49;9.60;93.90
18712;DHT22;9485;49.386;8.674;2022-11-13T18:12:30;9.70;93.90
18712;DHT22;9485;49.386;8.674;2022-11-13T18:18:10;9.60;93.90
18712;DHT22;9485;49.386;8.674;2022-11-13T18:23:55;9.60;94.10
18712;DHT22;9485;49.386;8.674;2022-11-13T18:29:36;9.60;94.20
18712;DHT22;9485;49.386;8.674;2022-11-13T18:35:16;9.60;94.30
18712;DHT22;9485;49.386;8.674;2022-11-13T18:41:04;9.60;94.30
18712;DHT22;9485;49.386;8.674;2022-11-13T18:46:46;9.60;94.50
18712;DHT22;9485;49.386;8.674;2022-11-13T18:52:25;9.50;94.00
18712;DHT22;9485;49.386;8.674;2022-11-13T18:58:05;9.50;94.00
18712;DHT22;9485;49.386;8.674;2022-11-13T19:03:46;9.40;94.00
18712;DHT22;9485;49.386;8.674;2022-11-13T19:09:25;9.40;94.40
18712;DHT22;9485;49.386;8.674;2022-11-13T19:15:06;9.30;94.20
18712;DHT22;9485;49.386;8.674;2022-11-13T19:20:47;9.30;94.20
18712;DHT22;9485;49.386;8.674;2022-11-13T19:26:29;9.30;94.30
18712;DHT22;9485;49.386;8.674;2022-11-13T19:32:09;9.30;94.40
18712;DHT22;9485;49.386;8.674;2022-11-13T19:37:55;9.40;94.40
18712;DHT22;9485;49.386;8.674;2022-11-13T19:43:37;9.30;94.20
18712;DHT22;9485;49.386;8.674;2022-11-13T19:49:18;9.30;94.20
18712;DHT22;9485;49.386;8.674;2022-11-13T19:54:58;9.20;94.10
18712;DHT22;9485;49.386;8.674;2022-11-13T20:00:38;9.20;93.90
18712;DHT22;9485;49.386;8.674;2022-11-13T20:06:18;9.10;93.80
18712;DHT22;9485;49.386;8.674;2022-11-13T20:12:00;9.00;93.90
18712;DHT22;9485;49.386;8.674;2022-11-13T20:17:40;9.00;93.80
18712;DHT22;9485;49.386;8.674;2022-11-13T20:23:20;9.00;93.80
18712;DHT22;9485;49.386;8.674;2022-11-13T20:29:00;8.90;93.80
18712;DHT22;9485;49.386;8.674;2022-11-13T20:34:40;8.80;93.70
18712;DHT22;9485;49.386;8.674;2022-11-13T20:40:20;8.70;93.70
18712;DHT22;9485;49.386;8.674;2022-11-13T20:46:04;8.70;93.70
18712;DHT22;9485;49.386;8.674;2022-11-13T20:51:45;8.60;93.70
18712;DHT22;9485;49.386;8.674;2022-11-13T20:57:25;8.50;93.70
18712;DHT22;9485;49.386;8.674;2022-11-13T21:03:07;8.50;93.70
18712;DHT22;9485;49.386;8.674;2022-11-13T21:08:46;8.40;93.80
18712;DHT22;9485;49.386;8.674;2022-11-13T21:14:27;8.40;94.00
18712;DHT22;9485;49.386;8.674;2022-11-13T21:20:09;8.30;94.20
18712;DHT22;9485;49.386;8.674;2022-11-13T21:25:57;8.40;94.20
18712;DHT22;9485;49.386;8.674;2022-11-13T21:31:37;8.30;94.10
18712;DHT22;9485;49.386;8.674;2022-11-13T21:37:18;8.30;94.10
18712;DHT22;9485;49.386;8.674;2022-11-13T21:42:58;8.20;94.10
18712;DHT22;9485;49.386;8.674;2022-11-13T21:48:37;8.20;94.10
18712;DHT22;9485;49.386;8.674;2022-11-13T21:54:19;8.10;94.20
18712;DHT22;9485;49.386;8.674;2022-11-13T21:59:58;8.10;94.10
18712;DHT22;9485;49.386;8.674;2022-11-13T22:05:37;8.00;94.20
18712;DHT22;9485;49.386;8.674;2022-11-13T22:11:18;7.90;94.20
18712;DHT22;9485;49.386;8.674;2022-11-13T22:16:58;7.90;94.10
18712;DHT22;9485;49.386;8.674;2022-11-13T22:22:37;7.80;94.10
18712;DHT22;9485;49.386;8.674;2022-11-13T22:28:18;7.80;94.30
18712;DHT22;9485;49.386;8.674;2022-11-13T22:33:58;7.80;94.60
18712;DHT22;9485;49.386;8.674;2022-11-13T22:39:37;7.80;94.70
18712;DHT22;9485;49.386;8.674;2022-11-13T22:45:18;7.90;94.80
18712;DHT22;9485;49.386;8.674;2022-11-13T22:51:03;7.90;94.90
18712;DHT22;9485;49.386;8.674;2022-11-13T22:56:45;8.00;95.00
18712;DHT22;9485;49.386;8.674;2022-11-13T23:02:26;8.10;95.00
18712;DHT22;9485;49.386;8.674;2022-11-13T23:08:06;8.10;95.40
18712;DHT22;9485;49.386;8.674;2022-11-13T23:13:47;8.10;95.00
18712;DHT22;9485;49.386;8.674;2022-11-13T23:19:29;8.20;95.10
18712;DHT22;9485;49.386;8.674;2022-11-13T23:25:09;8.20;95.20
18712;DHT22;9485;49.386;8.674;2022-11-13T23:30:48;8.30;95.30
18712;DHT22;9485;49.386;8.674;2022-11-13T23:36:29;8.40;95.40
18712;DHT22;9485;49.386;8.674;2022-11-13T23:42:09;8.50;95.50
18712;DHT22;9485;49.386;8.674;2022-11-13T23:47:50;8.60;95.90
18712;DHT22;9485;49.386;8.674;2022-11-13T23:53:31;8.70;95.60
18712;DHT22;9485;49.386;8.674;2022-11-13T23:59:10;8.80;95.60
